PANCPANI

Guest
Details From PANC - Ted Stevens Anchorage Intl
To PANI - Aniak
Flight Number -
Tags Generated
Created
Modified
Stats Distance 276 nm / 510 km
Max Altitude 0 ft / 0 m
Waypoints 3
Social Downloads 0
Likes 0
Share VATSIM

Download

Looking for another format? Having issues loading an existing format? Contact us
Advertisement - Login to hide

Notes

Generated

Route

PANC R0112 PANI

ID Type Via Altitude Latitude Longitude Leg Dist Tot Dist Heading (true) Name
O PANC APT - 0 ft / 0 m 61.16976˚ -150.00833˚ - 0 nm - -
R0112 FIX - 0 ft / 0 m 61.58585˚ -159.55777˚ 275 nm 275 nm 279° / 271° -
O PANI APT - 0 ft / 0 m 61.58585˚ -159.55777˚ 0 nm 275 nm 0° / 180° -

Altitude Profile

Advertisement - Login to hide

Weather


0- 5 10 15 20 25 30 35+ Temperature / ° C

Clouds and Precipitation
Forecast for 2018-05-25 00:00 UTC. Updated 4 hours ago

Ground ~20,000 ft ~40,000 ft Winds

PANC

Details ICAO PANC (ANC)
Name Ted Stevens Anchorage Intl
Region USA (Alaska)
Timezone America/Anchorage (UTC-8.0)
Stats Elevation 152 ft / 46 m (AMSL)
Location 61.174111° -149.995982°
Runways 3
Magnetic Variation 16.071° E

METAR

PANC 250253Z 15018G30KT 10SM FEW060 SCT120 BKN200 12/02 A2975

Decode

TAF

PANC 242339Z 2500/2606 15015G25KT P6SM VCSH FEW050 SCT100 FM250900 15008G15KT P6SM FEW060 BKN100 FM251200 VRB05KT P6SM FEW070 BKN100 FM260000 16012KT P6SM FEW050 BKN120

Decode

Departure Runways

ID Width Length Bearing (true) Bearing (mag) Surface Threshold Offset Overrun Length
07L 151 ft / 46 m 10,563 ft / 3,220 m 89.88° 73.81° Asphalt 0 ft / 0 m 381 ft / 116 m
07R 151 ft / 46 m 10,862 ft / 3,311 m 89.85° 73.78° Asphalt 0 ft / 0 m 499 ft / 152 m
15 151 ft / 46 m 11,563 ft / 3,524 m 164.90° 148.83° Asphalt 200 ft / 61 m 220 ft / 67 m
25L 151 ft / 46 m 10,862 ft / 3,311 m 269.91° 253.84° Asphalt 0 ft / 0 m 151 ft / 46 m
25R 151 ft / 46 m 10,563 ft / 3,220 m 269.94° 253.87° Asphalt 0 ft / 0 m 381 ft / 116 m
33 151 ft / 46 m 11,563 ft / 3,524 m 344.91° 328.84° Asphalt 892 ft / 272 m 449 ft / 137 m

PANI

Details ICAO PANI (ANI)
Name ANIAK
Region USA (Alaska)
Timezone America/Anchorage (UTC-8.0)
Stats Elevation 88 ft / 27 m (AMSL)
Location 61.581597° -159.543045°
Runways 1
Magnetic Variation 12.408° E

METAR

PANI 250256Z AUTO 29004KT 10SM FEW035 12/03 A2969 RMK AO2 SLP023 T01220033 55006

Decode

TAF

Not found

Destination Runways

ID Width Length Bearing (true) Bearing (mag) Surface Threshold Offset Overrun Length
10 151 ft / 46 m 5,982 ft / 1,823 m 121.22° 108.81° Asphalt 0 ft / 0 m 0 ft / 0 m
28 151 ft / 46 m 5,982 ft / 1,823 m 301.24° 288.83° Asphalt 0 ft / 0 m 0 ft / 0 m

Approach Navaids

Runway Type Ident Frequency Range Bearing (true) Bearing (mag) Slope Elevation
10 Localiser IANI 109.70 MHz 18 nm / 33 km 121.25° 108.84° - 88 ft / 27 m (AMSL)
10 Glidescope IANI 109.70 MHz 10 nm / 19 km 121.23° 108.82° 3.00° 88 ft / 27 m (AMSL)
10 DME IANI 109.70 MHz 18 nm / 33 km - - - 88 ft / 27 m (AMSL)

Popular Alternatives